Time;durP1;ratioP1;P1;durP2;ratioP2;P2;SDS_P1;SDS_P2;PMS_P1;PMS_P2;Temp;Humidity;BMP_temperature;BMP_pressure;BME280_temperature;BME280_humidity;BME280_pressure;Samples;Min_cycle;Max_cycle;Signal;HPM_P1;HPM_P2
2022/07/16 00:01:22;;;;;;;0.10;0.10;;;17.10;78.50;;;18.64;65.99;101960.13;2059308;28;20305;-59
2022/07/16 00:01:49;;;;;;;0.10;0.10;;;17.10;78.60;;;18.64;66.06;101957.41;2058119;28;20076;-60
2022/07/16 00:02:53;;;;;;;0.10;0.10;;;17.00;78.60;;;18.63;66.37;101949.56;2059360;28;20054;-60
2022/07/16 00:04:01;;;;;;;0.20;0.20;;;17.10;78.70;;;18.63;66.38;101960.50;2058205;28;20538;-60
2022/07/16 00:05:05;;;;;;;0.10;0.10;;;17.10;78.70;;;18.63;66.40;101961.28;2059349;28;20066;-59
2022/07/16 00:06:10;;;;;;;0.20;0.20;;;17.10;78.70;;;18.64;66.59;101973.00;2059404;28;20046;-59
2022/07/16 00:07:14;;;;;;;0.10;0.10;;;17.10;78.70;;;18.65;66.63;101975.38;2057217;28;20490;-60
2022/07/16 00:08:16;;;;;;;0.10;0.10;;;17.10;78.90;;;18.65;66.86;101980.84;2058971;28;20059;-59
2022/07/16 00:09:20;;;;;;;0.10;0.10;;;17.20;79.20;;;18.65;67.08;101980.06;2059646;28;20125;-60
2022/07/16 00:10:23;;;;;;;0.10;0.10;;;17.20;79.50;;;18.67;67.58;101977.75;2058084;28;20054;-60
2022/07/16 00:11:30;;;;;;;0.10;0.10;;;17.20;79.60;;;18.65;67.53;101980.84;2059926;28;20383;-59
2022/07/16 00:12:33;;;;;;;0.10;0.10;;;17.20;80.10;;;18.62;68.08;101989.78;2057425;28;20524;-58
2022/07/16 00:13:36;;;;;;;0.10;0.10;;;17.10;80.50;;;18.59;68.45;101982.31;2059512;28;20047;-58
2022/07/16 00:14:39;;;;;;;0.10;0.10;;;17.10;80.70;;;18.58;68.52;101980.75;2058730;28;20066;-58
2022/07/16 00:15:44;;;;;;;0.10;0.10;;;17.10;81.10;;;18.58;69.37;101985.44;2056878;28;20058;-59
2022/07/16 00:16:46;;;;;;;0.10;0.10;;;17.10;81.50;;;18.58;69.52;101978.03;2058496;28;20050;-60
2022/07/16 00:19:15;;;;;;;0.10;0.10;;;17.10;81.90;;;18.58;69.74;101979.97;2058570;28;20490;-59
2022/07/16 00:19:23;;;;;;;0.10;0.10;;;17.10;82.20;;;18.61;69.92;101990.16;2058991;28;20086;-60
2022/07/16 00:20:26;;;;;;;0.10;0.10;;;17.20;82.40;;;18.62;69.88;101984.31;2057600;28;20062;-59
2022/07/16 00:21:30;;;;;;;0.10;0.10;;;17.10;82.50;;;18.60;70.37;101981.16;2059219;28;20081;-59
2022/07/16 00:22:32;;;;;;;0.10;0.10;;;17.20;82.90;;;18.65;70.30;101986.31;2058812;28;20411;-60
2022/07/16 00:23:36;;;;;;;0.15;0.15;;;17.10;83.10;;;18.65;70.60;101982.78;2057339;28;20050;-59
2022/07/16 00:24:39;;;;;;;0.10;0.10;;;17.20;83.20;;;18.67;70.82;101988.69;2056727;28;20055;-58
2022/07/16 00:25:42;;;;;;;0.10;0.10;;;17.20;83.40;;;18.69;70.80;101987.19;2056103;28;20055;-59
2022/07/16 00:26:47;;;;;;;0.10;0.10;;;17.20;83.50;;;18.69;70.66;101981.72;2058018;28;20061;-62
2022/07/16 00:27:50;;;;;;;0.10;0.10;;;17.20;83.50;;;18.72;70.79;101980.97;2046384;28;20086;-59
2022/07/16 00:28:53;;;;;;;0.10;0.10;;;17.20;83.60;;;18.71;70.99;101990.31;2046308;28;20059;-61
2022/07/16 00:29:56;;;;;;;0.10;0.10;;;17.30;83.60;;;18.72;71.18;101991.13;2058042;28;20046;-60
2022/07/16 00:30:59;;;;;;;0.10;0.10;;;17.30;83.70;;;18.71;71.25;101990.31;2052679;28;20042;-59
2022/07/16 00:32:02;;;;;;;0.10;0.10;;;17.30;83.80;;;18.73;71.03;101987.22;2051864;28;20058;-60
2022/07/16 00:33:05;;;;;;;0.10;0.10;;;17.30;83.70;;;18.73;71.00;101988.00;2057242;28;20058;-59
2022/07/16 00:34:10;;;;;;;0.10;0.10;;;17.30;83.70;;;18.74;71.17;101986.06;2057909;28;20081;-59
2022/07/16 00:35:14;;;;;;;0.10;0.10;;;17.30;84.30;;;18.76;71.23;101986.47;2057232;28;20093;-60
2022/07/16 00:36:17;;;;;;;0.10;0.10;;;17.30;83.90;;;18.68;71.27;101963.69;2057476;28;20058;-60
2022/07/16 00:37:20;;;;;;;0.10;0.10;;;17.20;83.90;;;18.80;71.02;101982.66;2058043;28;20487;-59
2022/07/16 00:38:24;;;;;;;0.10;0.10;;;17.30;84.10;;;18.81;71.06;101984.22;2055979;28;20062;-60
2022/07/16 00:39:27;;;;;;;0.10;0.10;;;17.30;84.20;;;18.83;71.42;101973.72;2058701;28;20470;-59
2022/07/16 00:40:30;;;;;;;0.10;0.10;;;17.30;84.20;;;18.86;71.29;101985.84;2057792;28;20455;-59
2022/07/16 00:41:34;;;;;;;0.10;0.10;;;17.30;84.10;;;18.88;71.16;101984.34;2055942;28;20481;-59
2022/07/16 00:42:36;;;;;;;0.10;0.10;;;17.30;84.10;;;18.89;70.81;101991.38;2056305;28;20050;-59
2022/07/16 00:43:47;;;;;;;0.10;0.10;;;17.40;84.10;;;18.88;70.86;101984.34;2058696;28;20417;-59
2022/07/16 00:44:50;;;;;;;0.10;0.10;;;17.30;84.10;;;18.87;70.65;101988.22;2058819;28;20072;-59
2022/07/16 00:45:53;;;;;;;0.10;0.10;;;17.30;83.90;;;18.86;70.76;101983.91;2052120;28;20055;-59
2022/07/16 00:46:56;;;;;;;0.10;0.10;;;17.30;83.90;;;18.87;71.00;101996.44;2051473;28;20043;-60
2022/07/16 00:47:59;;;;;;;0.10;0.10;;;17.30;84.10;;;18.86;71.13;101983.91;2055407;28;20149;-59
2022/07/16 00:49:03;;;;;;;0.10;0.10;;;17.30;84.20;;;18.86;70.86;101989.41;2057732;28;20058;-59
2022/07/16 00:50:07;;;;;;;0.10;0.10;;;17.30;84.20;;;18.88;70.94;101983.56;2058054;28;20063;-61
2022/07/16 00:51:12;;;;;;;0.10;0.10;;;17.30;84.50;;;18.88;71.18;101981.63;2059155;28;20042;-59
2022/07/16 00:52:15;;;;;;;0.00;0.00;;;17.40;84.40;;;18.90;71.32;101979.28;2057974;28;20089;-59
2022/07/16 00:53:18;;;;;;;0.10;0.10;;;17.40;84.50;;;18.90;71.28;101976.53;2058327;28;20129;-61
2022/07/16 00:54:21;;;;;;;0.10;0.10;;;17.40;84.40;;;18.90;71.31;101987.47;2058045;28;20086;-60
2022/07/16 00:55:25;;;;;;;0.10;0.10;;;17.40;84.40;;;18.91;71.18;101986.34;2057791;28;20426;-59
2022/07/16 00:56:29;;;;;;;0.10;0.10;;;17.40;84.30;;;18.93;71.24;101985.97;2056724;28;20129;-60
2022/07/16 00:57:31;;;;;;;0.10;0.10;;;17.40;84.30;;;18.93;71.09;101991.44;2050558;28;20094;-59
2022/07/16 00:58:36;;;;;;;0.10;0.10;;;17.40;84.30;;;18.93;71.06;101981.28;2050869;28;20062;-60
2022/07/16 00:59:39;;;;;;;0.10;0.10;;;17.40;84.40;;;18.94;71.15;101988.34;2058090;28;20050;-59
2022/07/16 01:00:42;;;;;;;0.10;0.10;;;17.40;84.50;;;18.95;71.45;101986.38;2056896;28;20111;-58
2022/07/16 01:01:46;;;;;;;0.10;0.10;;;17.40;85.10;;;18.92;71.48;101985.19;2057016;28;20047;-58
2022/07/16 01:02:50;;;;;;;0.10;0.10;;;17.40;84.50;;;18.98;71.27;101983.69;2056793;28;20059;-59
2022/07/16 01:03:52;;;;;;;0.10;0.10;;;17.40;84.50;;;18.97;71.32;101984.88;2056256;28;20354;-59
2022/07/16 01:04:56;;;;;;;0.10;0.10;;;17.50;84.50;;;18.98;71.06;101988.41;2057635;28;20082;-60
2022/07/16 01:06:00;;;;;;;0.10;0.10;;;17.50;84.40;;;18.99;71.21;101990.78;2056177;28;20499;-59
2022/07/16 01:07:08;;;;;;;0.10;0.10;;;17.50;84.30;;;18.95;71.44;101989.91;2055694;28;20061;-60
2022/07/16 01:08:11;;;;;;;0.10;0.10;;;17.50;84.20;;;18.94;71.00;101988.34;2056659;28;20607;-61
2022/07/16 01:09:17;;;;;;;0.10;0.10;;;17.40;84.10;;;18.94;71.25;101993.03;2057525;28;20494;-59
2022/07/16 01:10:21;;;;;;;0.10;0.10;;;17.40;84.10;;;18.92;71.13;101987.91;2055789;28;20054;-59
2022/07/16 01:11:33;;;;;;;0.10;0.10;;;17.40;84.10;;;18.91;71.02;101989.09;2049462;28;20110;-59
2022/07/16 01:12:36;;;;;;;0.10;0.10;;;17.40;84.00;;;18.89;71.04;101993.31;2050476;28;20051;-59
2022/07/16 01:13:43;;;;;;;0.10;0.10;;;17.40;83.80;;;18.88;70.74;101980.81;2056786;28;20406;-59
2022/07/16 01:14:46;;;;;;;0.10;0.10;;;17.40;83.60;;;18.87;70.84;102001.09;2057551;28;20100;-59
2022/07/16 01:15:50;;;;;;;0.10;0.10;;;17.40;83.50;;;18.85;70.61;101995.22;2058084;28;20082;-62
2022/07/16 01:16:53;;;;;;;0.10;0.10;;;17.40;83.30;;;18.83;70.51;101998.34;2057190;28;20130;-59
2022/07/16 01:17:57;;;;;;;0.10;0.10;;;17.40;83.30;;;18.80;70.67;101992.81;2051319;28;20058;-59
2022/07/16 01:19:00;;;;;;;0.10;0.10;;;17.40;83.10;;;18.78;70.29;101995.13;2051194;28;20488;-60
2022/07/16 01:20:05;;;;;;;0.10;0.10;;;17.40;82.90;;;18.75;70.30;101993.13;2057112;28;20054;-59
2022/07/16 01:21:08;;;;;;;0.10;0.10;;;17.30;82.60;;;18.71;69.96;102004.00;2056955;28;20100;-60
2022/07/16 01:22:19;;;;;;;0.10;0.10;;;17.30;82.50;;;18.69;70.12;101992.66;2057223;28;20055;-59
2022/07/16 01:23:25;;;;;;;0.10;0.10;;;17.30;82.40;;;18.68;69.79;101996.53;2057859;28;20047;-60
2022/07/16 01:24:28;;;;;;;0.10;0.10;;;17.30;82.30;;;18.68;69.69;101993.03;2059943;28;20291;-60
2022/07/16 01:25:31;;;;;;;0.10;0.10;;;17.20;82.20;;;18.68;69.56;102001.22;2058342;28;20486;-59
2022/07/16 01:26:36;;;;;;;0.10;0.10;;;17.20;82.10;;;18.66;69.63;102004.31;2060606;28;20435;-63
2022/07/16 01:27:46;;;;;;;0.10;0.10;;;17.20;82.10;;;18.66;69.53;101996.09;2057985;28;20086;-60
2022/07/16 01:28:53;;;;;;;0.10;0.10;;;17.20;82.10;;;18.65;69.56;102002.75;2058376;28;20058;-62
2022/07/16 01:30:00;;;;;;;0.10;0.10;;;17.20;82.00;;;18.62;69.34;101998.00;2060643;28;20050;-61
2022/07/16 01:31:07;;;;;;;0.10;0.10;;;17.10;81.90;;;18.60;69.18;102005.00;2052047;28;20094;-61
2022/07/16 01:32:11;;;;;;;0.10;0.10;;;17.10;81.80;;;18.56;69.25;102002.22;2051858;28;20050;-60
2022/07/16 01:33:21;;;;;;;0.00;0.00;;;17.10;81.80;;;18.54;69.39;102007.25;2059072;28;20054;-60
2022/07/16 01:34:27;;;;;;;0.10;0.10;;;17.10;81.80;;;18.54;69.08;102006.44;2058760;28;20069;-60
2022/07/16 01:35:31;;;;;;;0.10;0.10;;;17.10;81.70;;;18.53;69.31;102004.88;2051774;28;20062;-60
2022/07/16 01:36:34;;;;;;;0.10;0.10;;;17.10;81.60;;;18.51;69.27;102013.44;2053024;28;20583;-61
2022/07/16 01:37:38;;;;;;;0.10;0.10;;;17.10;81.50;;;18.49;69.14;102010.28;2059205;28;20514;-60
2022/07/16 01:38:48;;;;;;;0.10;0.10;;;17.10;81.50;;;18.48;69.07;102010.66;2059096;28;20121;-60
2022/07/16 01:39:50;;;;;;;0.10;0.10;;;17.10;81.50;;;18.49;69.00;102015.75;2059459;28;20062;-60
2022/07/16 01:40:55;;;;;;;0.10;0.10;;;17.00;81.40;;;18.46;68.96;102013.75;2058094;28;20050;-59
2022/07/16 01:42:05;;;;;;;0.10;0.10;;;17.00;81.40;;;18.45;68.96;102012.19;2059116;28;20085;-59
2022/07/16 01:43:15;;;;;;;0.10;0.10;;;17.00;81.40;;;18.44;69.11;102010.59;2059918;28;20089;-60
2022/07/16 01:44:17;;;;;;;0.10;0.10;;;17.00;81.50;;;18.45;68.79;102017.66;2058394;28;20586;-62
2022/07/16 01:45:22;;;;;;;0.20;0.20;;;17.00;81.90;;;18.44;68.95;102024.25;2059153;28;20054;-60
2022/07/16 01:46:25;;;;;;;0.13;0.13;;;17.00;81.20;;;18.41;68.58;102022.25;2058036;28;20542;-60
2022/07/16 01:47:28;;;;;;;0.10;0.10;;;17.00;81.00;;;18.35;68.29;102015.47;2057320;28;20510;-59
2022/07/16 01:48:32;;;;;;;0.10;0.10;;;17.00;80.80;;;18.34;68.44;102013.91;2059488;28;20541;-59
2022/07/16 01:49:38;;;;;;;0.10;0.10;;;17.00;80.70;;;18.30;68.32;102018.50;2059644;28;20050;-60
2022/07/16 01:50:42;;;;;;;0.10;0.10;;;17.00;80.70;;;18.27;68.45;102019.25;2060525;28;20058;-60
2022/07/16 01:51:49;;;;;;;0.10;0.10;;;16.90;80.50;;;18.25;68.48;102023.50;2060488;28;20120;-63
2022/07/16 01:52:55;;;;;;;0.10;0.10;;;16.90;80.40;;;18.22;68.66;102016.81;2058681;28;20521;-59
2022/07/16 01:54:01;;;;;;;0.10;0.10;;;16.90;80.40;;;18.18;68.45;102018.69;2060089;28;20058;-60
2022/07/16 01:55:05;;;;;;;0.10;0.10;;;16.90;80.20;;;18.16;68.39;102021.00;2060679;28;20050;-61
2022/07/16 01:56:09;;;;;;;0.00;0.00;;;16.80;80.20;;;18.11;68.18;102024.03;2059269;28;20121;-60
2022/07/16 01:57:15;;;;;;;0.10;0.10;;;16.80;80.20;;;18.11;68.23;102021.28;2060665;28;20058;-65
2022/07/16 01:58:19;;;;;;;0.10;0.10;;;16.80;80.20;;;18.09;68.44;102023.63;2060925;28;20050;-60
2022/07/16 01:59:23;;;;;;;0.10;0.10;;;16.80;80.20;;;18.07;68.32;102022.38;2059043;28;20050;-61
2022/07/16 02:00:28;;;;;;;0.08;0.08;;;16.70;80.10;;;18.03;68.52;102027.78;2058625;28;20533;-59
2022/07/16 02:01:30;;;;;;;0.10;0.10;;;16.80;80.20;;;18.03;68.45;102025.03;2059435;28;20079;-60
2022/07/16 02:02:34;;;;;;;0.10;0.10;;;16.80;80.20;;;18.03;68.16;102029.75;2059524;28;20054;-62
2022/07/16 02:03:41;;;;;;;0.10;0.10;;;16.70;80.10;;;18.03;68.60;102029.75;2059471;28;20093;-60
2022/07/16 02:04:45;;;;;;;0.10;0.10;;;16.80;80.00;;;18.02;68.31;102026.19;2059850;28;20066;-60
2022/07/16 02:05:52;;;;;;;0.10;0.10;;;16.80;80.00;;;18.02;67.89;102028.94;2060562;28;20050;-60
2022/07/16 02:06:55;;;;;;;0.10;0.10;;;16.70;79.90;;;18.03;68.04;102035.97;2059069;28;20550;-60
2022/07/16 02:07:58;;;;;;;0.10;0.10;;;16.70;79.90;;;18.03;68.30;102025.03;2059625;28;20051;-60
2022/07/16 02:09:04;;;;;;;0.10;0.10;;;16.70;79.90;;;18.06;67.74;102039.94;2061271;28;20426;-59
2022/07/16 02:10:09;;;;;;;0.10;0.10;;;16.70;79.80;;;18.05;67.80;102039.13;2059802;28;20070;-59
2022/07/16 02:11:13;;;;;;;0.10;0.10;;;16.70;79.70;;;18.05;67.91;102036.41;2060406;28;20054;-60
2022/07/16 02:12:16;;;;;;;0.10;0.10;;;16.70;79.70;;;18.00;67.53;102025.75;2061534;28;20062;-60
2022/07/16 02:13:19;;;;;;;0.10;0.10;;;16.70;79.80;;;18.04;67.87;102037.56;2057176;28;20529;-62
2022/07/16 02:14:22;;;;;;;0.10;0.10;;;16.70;79.80;;;18.04;68.07;102029.38;2058467;28;20414;-60
2022/07/16 02:15:27;;;;;;;0.10;0.10;;;16.70;79.80;;;18.03;67.57;102035.19;2050925;28;20051;-64
2022/07/16 02:16:29;;;;;;;0.10;0.10;;;16.70;79.70;;;18.02;67.99;102039.06;2052951;28;20450;-60
2022/07/16 02:17:33;;;;;;;0.10;0.10;;;16.70;79.80;;;18.01;67.94;102041.03;2060326;28;20062;-62
2022/07/16 02:18:36;;;;;;;0.10;0.10;;;16.70;79.60;;;18.01;67.76;102042.97;2060353;28;20101;-61
2022/07/16 02:19:40;;;;;;;0.10;0.10;;;16.70;79.50;;;17.99;67.65;102040.59;2059177;28;20047;-60
2022/07/16 02:20:42;;;;;;;0.10;0.10;;;16.60;79.50;;;17.98;67.57;102040.97;2059134;28;20425;-59
2022/07/16 02:21:46;;;;;;;0.10;0.10;;;16.60;79.50;;;17.96;67.42;102046.78;2058894;28;20066;-59
2022/07/16 02:22:48;;;;;;;0.10;0.10;;;16.60;79.40;;;17.94;67.52;102043.63;2058712;28;20104;-60
2022/07/16 02:23:52;;;;;;;0.10;0.10;;;16.60;79.50;;;17.89;67.35;102041.97;2059868;28;20055;-61
2022/07/16 02:24:56;;;;;;;0.17;0.17;;;16.60;79.60;;;17.91;67.62;102049.81;2058617;28;20061;-60
2022/07/16 02:26:00;;;;;;;0.10;0.10;;;16.60;79.50;;;17.89;67.50;102050.16;2061003;28;20061;-59
2022/07/16 02:27:02;;;;;;;0.10;0.10;;;16.60;79.50;;;17.88;67.56;102056.00;2061092;28;20430;-60
2022/07/16 02:28:09;;;;;;;0.10;0.10;;;16.50;79.50;;;17.86;67.48;102053.63;2059332;28;20059;-60
2022/07/16 02:29:12;;;;;;;0.10;0.10;;;16.50;79.40;;;17.84;67.71;102047.72;2059636;28;20062;-59
2022/07/16 02:30:15;;;;;;;0.20;0.20;;;16.50;79.40;;;17.82;67.43;102051.97;2059675;28;20050;-60
2022/07/16 02:31:18;;;;;;;0.10;0.10;;;16.50;79.50;;;17.81;67.61;102050.38;2059963;28;20062;-60
2022/07/16 02:32:22;;;;;;;0.20;0.20;;;16.50;80.30;;;17.80;67.81;102043.34;2057935;28;20581;-59
2022/07/16 02:33:24;;;;;;;0.10;0.10;;;16.50;79.70;;;17.80;67.88;102046.06;2052315;28;20510;-60
2022/07/16 02:34:28;;;;;;;0.10;0.10;;;16.40;79.70;;;17.79;68.02;102058.16;2053801;28;20454;-60
2022/07/16 02:35:31;;;;;;;0.10;0.10;;;16.40;79.70;;;17.77;68.01;102055.75;2060357;28;20054;-60
2022/07/16 02:36:34;;;;;;;0.20;0.20;;;16.40;79.70;;;17.76;68.03;102050.66;2058483;28;20062;-60
2022/07/16 02:37:36;;;;;;;0.10;0.10;;;16.40;79.80;;;17.74;67.67;102050.25;2059595;28;20093;-62
2022/07/16 02:38:40;;;;;;;0.10;0.10;;;16.40;79.70;;;17.74;67.73;102042.81;2058559;28;20093;-60
2022/07/16 02:39:43;;;;;;;0.10;0.10;;;16.40;79.80;;;17.75;67.52;102051.81;2059419;28;20564;-59
2022/07/16 02:40:48;;;;;;;0.13;0.13;;;16.40;79.70;;;17.73;67.53;102045.91;2058861;28;20107;-60
2022/07/16 02:41:50;;;;;;;0.10;0.10;;;16.30;79.60;;;17.72;67.48;102052.53;2059395;28;20051;-59
2022/07/16 02:42:54;;;;;;;0.10;0.10;;;16.30;79.50;;;17.70;67.49;102052.09;2060258;28;20085;-60
2022/07/16 02:43:57;;;;;;;0.10;0.10;;;16.30;79.50;;;17.68;67.87;102051.66;2059647;28;20569;-64
2022/07/16 02:45:00;;;;;;;0.10;0.10;;;16.30;79.60;;;17.67;67.64;102041.88;2061114;28;20057;-60
2022/07/16 02:46:03;;;;;;;0.10;0.10;;;16.30;79.70;;;17.65;67.80;102046.91;2058611;28;20098;-61
2022/07/16 02:47:05;;;;;;;0.10;0.10;;;16.30;79.80;;;17.63;67.68;102046.50;2059658;28;20073;-60
2022/07/16 02:48:10;;;;;;;0.13;0.13;;;16.30;79.90;;;17.64;68.23;102045.34;2059288;28;20090;-59
2022/07/16 02:49:12;;;;;;;0.10;0.10;;;16.30;80.00;;;17.64;67.80;102054.34;2059275;28;20054;-60
2022/07/16 02:50:15;;;;;;;0.10;0.10;;;16.30;79.90;;;17.64;67.85;102046.13;2053307;28;20043;-59
2022/07/16 02:51:18;;;;;;;0.10;0.10;;;16.30;79.90;;;17.60;68.13;102039.03;2052219;28;20090;-60
2022/07/16 02:52:21;;;;;;;0.10;0.10;;;16.30;79.80;;;17.60;67.83;102044.50;2060150;28;20083;-60
2022/07/16 02:53:23;;;;;;;0.10;0.10;;;16.30;79.80;;;17.61;67.73;102048.78;2060088;28;20055;-60
2022/07/16 02:54:27;;;;;;;0.10;0.10;;;16.30;79.80;;;17.60;67.92;102049.94;2058338;28;20108;-61
2022/07/16 02:55:29;;;;;;;0.10;0.10;;;16.20;79.70;;;17.58;67.59;102047.53;2060445;28;20394;-59
2022/07/16 02:56:34;;;;;;;0.10;0.10;;;16.20;79.70;;;17.57;67.94;102051.44;2058210;28;20629;-60
2022/07/16 02:57:37;;;;;;;0.10;0.10;;;16.20;79.80;;;17.53;67.84;102042.41;2050463;28;20090;-61
2022/07/16 02:58:40;;;;;;;0.10;0.10;;;16.20;80.00;;;17.58;67.92;102052.25;2050918;28;20054;-59
2022/07/16 02:59:43;;;;;;;0.10;0.10;;;16.20;79.80;;;17.56;67.88;102054.53;2058542;28;20054;-59
2022/07/16 03:00:46;;;;;;;0.10;0.10;;;16.10;79.90;;;17.56;68.10;102051.81;2060327;28;20085;-60
2022/07/16 03:01:48;;;;;;;0.10;0.10;;;16.20;80.10;;;17.54;67.95;102052.16;2060130;28;20129;-59
2022/07/16 03:02:52;;;;;;;0.10;0.10;;;16.20;80.70;;;17.54;67.89;102051.34;2059722;28;20086;-60
2022/07/16 03:03:55;;;;;;;0.20;0.20;;;16.10;79.90;;;17.53;67.96;102060.72;2060773;28;20439;-59
2022/07/16 03:04:58;;;;;;;0.13;0.13;;;16.10;79.90;;;17.52;67.70;102056.41;2059910;28;20067;-60
2022/07/16 03:06:02;;;;;;;0.10;0.10;;;16.10;79.80;;;17.53;67.58;102066.16;2058442;28;20050;-59
2022/07/16 03:07:05;;;;;;;0.10;0.10;;;16.10;79.90;;;17.52;67.47;102059.13;2060239;28;20188;-60
2022/07/16 03:08:08;;;;;;;0.10;0.10;;;16.00;80.00;;;17.53;67.56;102057.97;2058128;28;20062;-60
2022/07/16 03:09:10;;;;;;;0.10;0.10;;;16.10;80.20;;;17.54;67.78;102062.28;2058663;28;20082;-58
2022/07/16 03:10:14;;;;;;;0.10;0.10;;;16.10;80.20;;;17.54;67.85;102067.75;2060690;28;20097;-61
2022/07/16 03:11:17;;;;;;;0.13;0.13;;;16.10;80.20;;;17.55;67.81;102061.91;2059102;28;20147;-60
2022/07/16 03:12:21;;;;;;;0.10;0.10;;;16.10;80.30;;;17.55;67.56;102064.66;2061146;28;20074;-61
2022/07/16 03:13:24;;;;;;;0.20;0.20;;;16.10;80.30;;;17.55;67.61;102063.88;2057917;28;20129;-60
2022/07/16 03:14:27;;;;;;;0.10;0.10;;;16.00;80.20;;;17.54;67.57;102070.47;2060291;28;20425;-59
2022/07/16 03:15:30;;;;;;;0.20;0.20;;;16.00;80.20;;;17.52;67.63;102059.13;2059595;28;20089;-60
2022/07/16 03:16:33;;;;;;;0.20;0.20;;;16.00;80.30;;;17.50;67.93;102066.88;2059081;28;20197;-60
2022/07/16 03:17:36;;;;;;;0.20;0.20;;;16.00;80.30;;;17.48;67.89;102064.50;2060377;28;20418;-61
2022/07/16 03:18:39;;;;;;;0.20;0.20;;;16.00;80.30;;;17.44;67.67;102062.84;2050043;28;20578;-60
2022/07/16 03:19:42;;;;;;;0.10;0.10;;;16.00;80.30;;;17.47;68.00;102068.38;2050573;28;20055;-60
2022/07/16 03:20:48;;;;;;;0.10;0.10;;;16.00;80.40;;;17.45;68.13;102069.91;2059960;28;20524;-60
2022/07/16 03:21:51;;;;;;;0.20;0.20;;;16.10;80.30;;;17.43;68.04;102074.88;2057652;28;20525;-60
2022/07/16 03:22:54;;;;;;;0.20;0.20;;;16.00;80.20;;;17.42;68.03;102073.31;2058958;28;20572;-60
2022/07/16 03:23:56;;;;;;;0.10;0.10;;;16.00;80.20;;;17.41;68.14;102071.75;2060438;28;20482;-61
2022/07/16 03:25:00;;;;;;;0.10;0.10;;;16.00;80.30;;;17.39;68.12;102071.28;2058242;28;20626;-62
2022/07/16 03:26:02;;;;;;;0.13;0.13;;;16.00;80.80;;;17.37;68.05;102074.38;2058115;28;20050;-60
2022/07/16 03:27:06;;;;;;;0.10;0.10;;;16.00;80.20;;;17.34;68.14;102080.56;2058793;28;20470;-60
2022/07/16 03:28:10;;;;;;;0.10;0.10;;;16.00;80.70;;;17.33;68.01;102078.19;2060152;28;20530;-60
2022/07/16 03:29:13;;;;;;;0.10;0.10;;;16.00;80.00;;;17.30;67.95;102081.63;2060027;28;20391;-61
2022/07/16 03:30:17;;;;;;;0.10;0.10;;;16.00;80.10;;;17.28;67.95;102081.94;2058494;28;20570;-60
2022/07/16 03:31:20;;;;;;;0.20;0.20;;;15.90;80.10;;;17.26;68.07;102078.00;2049233;28;20054;-60
2022/07/16 03:32:22;;;;;;;0.20;0.20;;;15.90;80.10;;;17.24;68.19;102085.75;2049844;28;20569;-62
2022/07/16 03:33:26;;;;;;;0.20;0.20;;;15.90;80.10;;;17.22;68.17;102088.06;2057628;28;20090;-60
2022/07/16 03:34:28;;;;;;;0.10;0.10;;;15.90;80.20;;;17.21;68.15;102086.47;2057456;28;20130;-61
2022/07/16 03:35:32;;;;;;;0.20;0.20;;;15.80;80.20;;;17.17;68.11;102080.91;2057783;28;20062;-60
2022/07/16 03:36:34;;;;;;;0.20;0.20;;;15.80;80.20;;;17.19;68.04;102092.28;2059091;28;20065;-60
2022/07/16 03:38:57;;;;;;;0.10;0.10;;;15.80;80.20;;;17.16;68.07;102090.25;2061305;28;20050;-61
2022/07/16 03:39:03;;;;;;;0.20;0.20;;;15.80;80.30;;;17.13;68.26;102090.97;2058790;28;20053;-60
2022/07/16 03:40:07;;;;;;;0.20;0.20;;;15.80;80.30;;;17.11;68.27;102092.50;2057134;28;20058;-61
2022/07/16 03:41:11;;;;;;;0.10;0.10;;;15.80;80.30;;;17.11;68.17;102097.94;2059100;28;20065;-60
2022/07/16 03:42:13;;;;;;;0.20;0.20;;;15.80;80.20;;;17.10;68.13;102090.88;2059386;28;20054;-60
2022/07/16 03:43:18;;;;;;;0.20;0.20;;;15.80;80.30;;;17.10;68.16;102093.63;2049945;28;20097;-60
2022/07/16 03:44:20;;;;;;;0.10;0.10;;;15.80;80.20;;;17.08;68.22;102093.97;2049878;28;20051;-61
2022/07/16 03:45:23;;;;;;;0.10;0.10;;;15.70;80.20;;;17.08;68.04;102099.44;2058401;28;20146;-60
2022/07/16 03:46:26;;;;;;;0.10;0.10;;;15.70;80.00;;;17.06;67.76;102093.53;2059715;28;20061;-60
2022/07/16 03:47:29;;;;;;;0.10;0.10;;;15.70;80.00;;;17.04;67.77;102095.03;2058786;28;20062;-60
2022/07/16 03:48:32;;;;;;;0.10;0.10;;;15.60;79.90;;;17.04;67.68;102103.22;2059242;28;20430;-63
2022/07/16 03:49:35;;;;;;;0.10;0.10;;;15.70;80.00;;;17.03;67.74;102102.41;2059680;28;20101;-60
2022/07/16 03:50:37;;;;;;;0.10;0.10;;;15.70;80.00;;;17.02;67.80;102100.03;2059429;28;20090;-60
2022/07/16 03:51:41;;;;;;;0.20;0.20;;;15.70;80.00;;;17.00;67.96;102105.84;2059401;28;20161;-61
2022/07/16 03:52:44;;;;;;;0.20;0.20;;;15.70;80.00;;;16.99;67.90;102106.22;2058024;28;20399;-61
2022/07/16 03:53:47;;;;;;;0.10;0.10;;;15.60;79.90;;;16.99;67.88;102103.47;2060430;28;20419;-62
2022/07/16 03:54:50;;;;;;;0.20;0.20;;;15.70;79.90;;;16.98;67.72;102104.63;2056490;28;20129;-60
2022/07/16 03:55:53;;;;;;;0.20;0.20;;;15.60;79.80;;;16.97;67.80;102108.50;2058230;28;20133;-60
2022/07/16 03:56:56;;;;;;;0.20;0.20;;;15.60;79.70;;;16.95;67.70;102105.34;2059508;28;20592;-60
2022/07/16 03:57:59;;;;;;;0.10;0.10;;;15.70;79.70;;;16.95;67.78;102110.81;2059442;28;20113;-60
2022/07/16 03:59:03;;;;;;;0.10;0.10;;;15.70;79.50;;;16.95;67.33;102111.56;2058498;28;20078;-61
2022/07/16 04:00:08;;;;;;;0.20;0.20;;;15.70;79.30;;;16.94;67.54;102110.00;2059308;28;20054;-61
2022/07/16 04:01:11;;;;;;;0.10;0.10;;;15.60;79.20;;;16.93;67.52;102110.34;2057460;28;20061;-60
2022/07/16 04:02:14;;;;;;;0.10;0.10;;;15.60;79.10;;;16.94;67.52;102114.66;2058254;28;20086;-60
2022/07/16 04:03:17;;;;;;;0.10;0.10;;;15.60;78.90;;;16.92;66.80;102117.75;2058939;28;20061;-60
2022/07/16 04:04:20;;;;;;;0.10;0.10;;;15.60;78.90;;;16.92;66.99;102116.97;2059932;28;20050;-60
2022/07/16 04:05:24;;;;;;;0.10;0.10;;;15.60;78.90;;;16.91;67.15;102118.09;2059934;28;20089;-60
2022/07/16 04:06:27;;;;;;;0.10;0.10;;;15.60;78.90;;;16.91;66.75;102126.28;2058924;28;20057;-61
2022/07/16 04:07:30;;;;;;;0.10;0.10;;;15.60;79.10;;;16.91;66.87;102126.28;2060475;28;20082;-60
2022/07/16 04:08:33;;;;;;;0.10;0.10;;;15.60;78.90;;;16.90;67.37;102114.59;2058609;28;20569;-60
2022/07/16 04:09:36;;;;;;;0.10;0.10;;;15.60;79.00;;;16.96;67.16;102128.75;2059080;28;20054;-60
2022/07/16 04:10:39;;;;;;;0.10;0.10;;;15.60;79.10;;;16.98;67.33;102123.72;2058112;28;20059;-60
2022/07/16 04:11:42;;;;;;;0.15;0.15;;;15.60;79.20;;;16.98;67.20;102119.06;2058217;28;20050;-61
2022/07/16 04:12:45;;;;;;;0.10;0.10;;;15.60;79.20;;;16.99;67.41;102119.84;2059344;28;20125;-60
2022/07/16 04:13:49;;;;;;;0.10;0.10;;;15.60;79.20;;;16.99;67.32;102122.56;2051965;28;20066;-60
2022/07/16 04:14:53;;;;;;;0.10;0.10;;;15.70;79.20;;;17.02;67.50;102133.59;2051539;28;20051;-60
2022/07/16 04:15:56;;;;;;;0.10;0.10;;;15.70;79.30;;;17.06;67.57;102128.22;2059027;28;20066;-60
2022/07/16 04:16:59;;;;;;;0.20;0.20;;;15.80;79.40;;;17.10;67.78;102129.09;2059553;28;20517;-61
2022/07/16 04:18:02;;;;;;;0.10;0.10;;;15.80;79.40;;;17.12;67.61;102129.53;2058161;28;20417;-61
2022/07/16 04:19:05;;;;;;;0.20;0.20;;;15.80;79.40;;;17.13;67.50;102126.44;2058655;28;20198;-60
2022/07/16 04:20:10;;;;;;;0.10;0.10;;;15.80;79.30;;;17.14;67.49;102129.97;2056960;28;20790;-61
2022/07/16 04:21:12;;;;;;;0.10;0.10;;;15.80;79.30;;;17.15;67.41;102131.56;2059291;28;20082;-60
2022/07/16 04:22:15;;;;;;;0.10;0.10;;;15.80;79.20;;;17.15;67.42;102137.00;2059275;28;20085;-69
2022/07/16 04:23:18;;;;;;;0.10;0.10;;;15.80;79.10;;;17.15;67.42;102128.81;2051598;28;20054;-61
2022/07/16 04:24:22;;;;;;;0.10;0.10;;;15.90;79.10;;;17.15;66.90;102137.00;2049796;28;20571;-60
2022/07/16 04:25:24;;;;;;;0.20;0.20;;;15.80;78.70;;;17.13;66.90;102140.09;2057030;28;20061;-60
2022/07/16 04:26:28;;;;;;;0.10;0.10;;;15.80;78.50;;;17.12;66.42;102135.00;2056814;28;20651;-60